createdAt,value
2024-04-30T00:00:03.108Z,1014.9
2024-04-30T00:15:02.447Z,1014.8
2024-04-30T00:30:02.786Z,1014.7
2024-04-30T00:45:03.225Z,1014.7
2024-04-30T01:00:02.606Z,1014.7
2024-04-30T01:15:02.168Z,1014.8
2024-04-30T01:30:02.523Z,1014.8
2024-04-30T01:45:03.127Z,1014.8
2024-04-30T02:00:02.418Z,1014.7
2024-04-30T02:15:02.874Z,1014.7
2024-04-30T02:30:02.298Z,1014.5
2024-04-30T02:45:02.729Z,1014.4
2024-04-30T03:00:03.200Z,1014.3
2024-04-30T03:15:02.660Z,1014.2
2024-04-30T03:30:03.165Z,1014.0
2024-04-30T03:45:02.532Z,1013.9
2024-04-30T04:00:03.159Z,1013.8
2024-04-30T04:15:02.428Z,1013.8
2024-04-30T04:30:02.871Z,1013.8
2024-04-30T04:45:02.299Z,1013.7
2024-04-30T05:00:02.743Z,1013.7
2024-04-30T05:15:03.225Z,1013.8
2024-04-30T05:30:02.670Z,1013.7
2024-04-30T05:45:03.145Z,1013.7
2024-04-30T06:00:02.872Z,1013.7
2024-04-30T06:15:02.177Z,1013.5
2024-04-30T06:30:02.461Z,1013.4
2024-04-30T06:45:02.887Z,1013.3
2024-04-30T07:00:02.364Z,1013.2
2024-04-30T07:15:02.778Z,1013.1
2024-04-30T07:30:02.317Z,1013.1
2024-04-30T07:45:02.662Z,1013.0
2024-04-30T08:00:03.211Z,1012.9
2024-04-30T08:15:02.565Z,1012.9
2024-04-30T08:30:03.178Z,1012.7
2024-04-30T08:45:03.486Z,1012.7
2024-04-30T09:00:02.909Z,1012.5
2024-04-30T09:15:02.318Z,1012.6
2024-04-30T09:30:02.782Z,1012.3
2024-04-30T09:45:03.230Z,1012.3
2024-04-30T10:00:02.779Z,1012.1
2024-04-30T10:15:02.202Z,1011.8
2024-04-30T10:30:02.519Z,1011.7
2024-04-30T10:45:03.234Z,1011.6
2024-04-30T11:00:02.436Z,1011.4
2024-04-30T11:15:02.838Z,1011.1
2024-04-30T11:30:02.303Z,1011.1
2024-04-30T11:45:02.678Z,1011.1
2024-04-30T12:00:03.208Z,1010.9
2024-04-30T12:15:02.594Z,1010.5
2024-04-30T12:30:03.259Z,1010.4
2024-04-30T12:45:02.474Z,1010.3
2024-04-30T13:00:02.926Z,1010.1
2024-04-30T13:15:02.335Z,1010.0
2024-04-30T13:30:02.807Z,1009.7
2024-04-30T13:45:02.264Z,1009.6
2024-04-30T14:00:02.667Z,1009.2
2024-04-30T14:15:03.247Z,1009.3
2024-04-30T14:30:02.574Z,1009.2
2024-04-30T14:45:03.238Z,1009.1
2024-04-30T15:00:02.462Z,1009.0
2024-04-30T15:15:02.910Z,1009.0
2024-04-30T15:30:02.391Z,1008.8
2024-04-30T15:45:02.783Z,1008.6
2024-04-30T16:00:03.317Z,1008.4
2024-04-30T16:15:02.669Z,1008.4
2024-04-30T16:30:03.289Z,1008.5
2024-04-30T16:45:02.517Z,1008.5
2024-04-30T17:00:03.019Z,1008.4
2024-04-30T17:15:02.406Z,1008.3
2024-04-30T17:30:02.829Z,1008.3
2024-04-30T17:45:03.350Z,1008.4
2024-04-30T18:00:02.742Z,1008.2
2024-04-30T18:15:03.279Z,1008.5
2024-04-30T18:30:02.629Z,1008.4
2024-04-30T18:45:03.278Z,1008.5
2024-04-30T19:00:02.507Z,1008.4
2024-04-30T19:15:02.958Z,1008.6
2024-04-30T19:30:02.395Z,1008.4
2024-04-30T19:45:02.841Z,1008.4
2024-04-30T20:00:02.379Z,1008.2
2024-04-30T20:15:02.693Z,1008.2
2024-04-30T20:30:04.132Z,1008.3
2024-04-30T20:45:02.602Z,1008.1
2024-04-30T21:00:03.029Z,1008.1
2024-04-30T21:15:02.447Z,1007.9
2024-04-30T21:30:02.863Z,1007.8
2024-04-30T21:45:02.318Z,1007.8
2024-04-30T22:00:02.734Z,1007.7
2024-04-30T22:15:02.356Z,1007.5
2024-04-30T22:30:12.458Z,1007.4
2024-04-30T22:45:03.069Z,1007.3
2024-04-30T23:00:02.514Z,1007.2
2024-04-30T23:15:02.959Z,1006.9
2024-04-30T23:30:02.440Z,1006.6
2024-04-30T23:45:02.824Z,1006.6
